Terminal Aerodrome Forecast
Issued by NWS

Home | Current Version | Previous Version | Text Only | Print | Product List | Glossary On
Versions: 1 2 3 4 5 6 7 8 9 10 11 12 13 14 15 16 17 18 19 20 21 22 23 24 25
000
FTUS45 KCYS 251720
TAFAIA
TAF
KAIA 251720Z 2518/2618 07007KT P6SM FEW020 SCT150
     FM252000 34006KT P6SM VCTS SCT050CB BKN150
     FM252300 12011KT P6SM -TSRA BKN050CB
     FM260200 14012KT P6SM -RA SCT015 BKN040
     FM260600 13008KT 4SM BR OVC015
     FM260900 13012KT 1/2SM FG OVC002=

USA.gov is the U.S. government's official web portal to all federal, state and local government web resources and services.